Terminal Aerodrome Forecast
Issued by NWS

Home | Current Version | Previous Version | Text Only | Print | Product List | Glossary On
Versions: 1 2 3 4 5 6 7 8 9 10 11 12 13 14 15 16 17 18 19 20 21
000
FTUS42 KILM 301720
TAFCRE
TAF
KCRE 301720Z 3018/0118 19011G21KT P6SM FEW030
      TEMPO 3018/3020 BKN020
     FM010600 18012G20KT P6SM SCT008 SCT015
      TEMPO 0108/0112 BKN008
     FM011400 20014G25KT P6SM SCT020=

USA.gov is the U.S. government's official web portal to all federal, state and local government web resources and services.